Time,TemperatureF,DewpointF,PressureIn,WindDirection,WindDirectionDegrees,WindSpeedMPH,WindSpeedGustMPH,Humidity,HourlyPrecipIn,Conditions,Clouds,dailyrainin,SoftwareType,DateUTC
2013-10-26 00:02:00,31.5,28.4,30.34,WSW,254,0.0,0.0,88,0.00,,,0.00,meteobridge,2013-10-26 04:02:00,
2013-10-26 00:07:00,31.3,28.2,30.34,WSW,254,0.0,0.0,88,0.00,,,0.00,meteobridge,2013-10-26 04:07:00,
2013-10-26 00:12:00,30.9,27.9,30.34,WSW,254,0.0,0.0,88,0.00,,,0.00,meteobridge,2013-10-26 04:12:00,
2013-10-26 00:17:00,30.9,28.0,30.34,WSW,254,0.0,0.0,89,0.00,,,0.00,meteobridge,2013-10-26 04:17:00,
2013-10-26 00:22:00,30.9,28.0,30.34,WSW,254,0.0,0.0,89,0.00,,,0.00,meteobridge,2013-10-26 04:22:00,
2013-10-26 00:27:00,30.7,27.9,30.34,WSW,254,0.0,0.0,89,0.00,,,0.00,meteobridge,2013-10-26 04:27:00,
2013-10-26 00:32:00,30.6,27.7,30.34,WSW,254,0.0,0.0,89,0.00,,,0.00,meteobridge,2013-10-26 04:32:00,
2013-10-26 00:37:00,30.4,27.5,30.34,WSW,254,0.0,0.0,89,0.00,,,0.00,meteobridge,2013-10-26 04:37:00,
2013-10-26 00:43:00,30.4,27.9,30.34,WSW,254,0.0,0.0,90,0.00,,,0.00,meteobridge,2013-10-26 04:43:00,
2013-10-26 00:48:00,30.0,27.5,30.33,WSW,254,0.0,0.0,90,0.00,,,0.00,meteobridge,2013-10-26 04:48:00,
2013-10-26 00:53:00,30.0,27.5,30.33,WSW,254,0.0,0.0,90,0.00,,,0.00,meteobridge,2013-10-26 04:53:00,
2013-10-26 00:58:00,29.8,27.3,30.33,WSW,254,0.0,0.0,90,0.00,,,0.00,meteobridge,2013-10-26 04:58:00,
2013-10-26 01:03:00,30.0,27.7,30.32,WSW,254,0.0,0.0,91,0.00,,,0.00,meteobridge,2013-10-26 05:03:00,
2013-10-26 01:09:00,30.0,27.7,30.32,WSW,254,0.0,0.0,91,0.00,,,0.00,meteobridge,2013-10-26 05:09:00,
2013-10-26 01:14:00,30.0,27.7,30.32,WSW,254,0.0,0.0,91,0.00,,,0.00,meteobridge,2013-10-26 05:14:00,
2013-10-26 01:19:00,30.4,28.0,30.32,WSW,254,0.0,0.0,91,0.00,,,0.00,meteobridge,2013-10-26 05:19:00,
2013-10-26 01:24:00,30.0,27.7,30.32,WSW,254,0.0,0.0,91,0.00,,,0.00,meteobridge,2013-10-26 05:24:00,
2013-10-26 01:29:00,30.0,27.7,30.32,WSW,254,0.0,0.0,91,0.00,,,0.00,meteobridge,2013-10-26 05:29:00,
2013-10-26 01:35:00,30.0,27.7,30.32,WSW,254,0.0,0.0,91,0.00,,,0.00,meteobridge,2013-10-26 05:35:00,
2013-10-26 01:40:00,30.4,28.0,30.32,WSW,254,0.0,0.0,91,0.00,,,0.00,meteobridge,2013-10-26 05:40:00,
2013-10-26 01:45:00,30.4,28.0,30.32,WSW,254,0.0,0.0,91,0.00,,,0.00,meteobridge,2013-10-26 05:45:00,
2013-10-26 01:50:00,30.4,28.0,30.32,WSW,254,0.0,0.0,91,0.00,,,0.00,meteobridge,2013-10-26 05:50:00,
2013-10-26 01:55:00,30.0,27.7,30.32,WSW,254,0.0,0.0,91,0.00,,,0.00,meteobridge,2013-10-26 05:55:00,
2013-10-26 02:00:00,30.0,27.7,30.31,WSW,254,0.0,0.0,91,0.00,,,0.00,meteobridge,2013-10-26 06:00:00,
2013-10-26 02:06:00,29.8,27.5,30.31,WSW,254,0.0,0.0,91,0.00,,,0.00,meteobridge,2013-10-26 06:06:00,
2013-10-26 02:11:00,29.8,27.5,30.31,WSW,254,0.0,0.0,91,0.00,,,0.00,meteobridge,2013-10-26 06:11:00,
2013-10-26 02:16:00,30.0,28.0,30.30,WSW,254,0.0,0.0,92,0.00,,,0.00,meteobridge,2013-10-26 06:16:00,
2013-10-26 02:21:00,29.8,27.9,30.30,WSW,254,0.0,0.0,92,0.00,,,0.00,meteobridge,2013-10-26 06:21:00,
2013-10-26 02:26:00,29.7,27.7,30.30,WSW,254,0.0,0.0,92,0.00,,,0.00,meteobridge,2013-10-26 06:26:00,
2013-10-26 02:32:00,29.5,27.5,30.30,WSW,254,0.0,0.0,92,0.00,,,0.00,meteobridge,2013-10-26 06:32:00,
2013-10-26 02:37:00,29.3,27.3,30.30,WSW,254,0.0,0.0,92,0.00,,,0.00,meteobridge,2013-10-26 06:37:00,
2013-10-26 02:42:00,29.1,27.1,30.30,WSW,254,0.0,0.0,92,0.00,,,0.00,meteobridge,2013-10-26 06:42:00,
2013-10-26 02:47:00,28.9,27.0,30.30,WSW,254,0.0,0.0,92,0.00,,,0.00,meteobridge,2013-10-26 06:47:00,
2013-10-26 02:52:00,29.5,27.7,30.30,WSW,254,0.0,0.0,93,0.00,,,0.00,meteobridge,2013-10-26 06:52:00,
2013-10-26 02:57:00,29.5,27.7,30.30,WSW,254,0.0,0.0,93,0.00,,,0.00,meteobridge,2013-10-26 06:57:00,
2013-10-26 03:03:00,29.5,27.7,30.30,WSW,254,0.0,0.0,93,0.00,,,0.00,meteobridge,2013-10-26 07:03:00,
2013-10-26 03:08:00,29.7,27.9,30.30,WSW,254,0.0,0.0,93,0.00,,,0.00,meteobridge,2013-10-26 07:08:00,
2013-10-26 03:13:00,29.7,27.9,30.30,WSW,254,0.0,0.0,93,0.00,,,0.00,meteobridge,2013-10-26 07:13:00,
2013-10-26 03:18:00,29.7,27.9,30.29,WSW,254,0.0,0.0,93,0.00,,,0.00,meteobridge,2013-10-26 07:18:00,
2013-10-26 03:23:00,29.5,27.7,30.29,WSW,254,0.0,0.0,93,0.00,,,0.00,meteobridge,2013-10-26 07:23:00,
2013-10-26 03:28:00,29.3,27.5,30.29,WSW,254,0.0,0.0,93,0.00,,,0.00,meteobridge,2013-10-26 07:28:00,
2013-10-26 03:34:00,29.1,27.3,30.29,WSW,254,0.0,0.0,93,0.00,,,0.00,meteobridge,2013-10-26 07:34:00,
2013-10-26 03:39:00,28.9,27.1,30.29,WSW,254,0.0,0.0,93,0.00,,,0.00,meteobridge,2013-10-26 07:39:00,
2013-10-26 03:44:00,28.8,27.0,30.29,WSW,254,0.0,0.0,93,0.00,,,0.00,meteobridge,2013-10-26 07:44:00,
2013-10-26 03:49:00,28.8,27.0,30.28,WSW,254,0.0,0.0,93,0.00,,,0.00,meteobridge,2013-10-26 07:49:00,
2013-10-26 03:54:00,28.6,26.8,30.28,WSW,254,0.0,0.0,93,0.00,,,0.00,meteobridge,2013-10-26 07:54:00,
2013-10-26 04:00:00,28.2,26.4,30.28,WSW,254,0.0,0.0,93,0.00,,,0.00,meteobridge,2013-10-26 08:00:00,
2013-10-26 04:05:00,28.0,26.2,30.28,WSW,254,0.0,0.0,93,0.00,,,0.00,meteobridge,2013-10-26 08:05:00,
2013-10-26 04:10:00,28.0,26.2,30.28,WSW,254,0.0,0.0,93,0.00,,,0.00,meteobridge,2013-10-26 08:10:00,
2013-10-26 04:15:00,27.9,26.1,30.27,WSW,254,0.0,0.0,93,0.00,,,0.00,meteobridge,2013-10-26 08:15:00,
2013-10-26 04:20:00,27.9,26.4,30.27,WSW,254,0.0,0.0,94,0.00,,,0.00,meteobridge,2013-10-26 08:20:00,
2013-10-26 04:25:00,27.9,26.4,30.27,WSW,254,0.0,0.0,94,0.00,,,0.00,meteobridge,2013-10-26 08:25:00,
2013-10-26 04:30:00,27.9,26.4,30.27,WSW,254,0.0,0.0,94,0.00,,,0.00,meteobridge,2013-10-26 08:30:00,
2013-10-26 04:35:00,27.9,26.4,30.27,WSW,254,0.0,0.0,94,0.00,,,0.00,meteobridge,2013-10-26 08:35:00,
2013-10-26 04:40:00,27.9,26.4,30.27,WSW,254,0.0,0.0,94,0.00,,,0.00,meteobridge,2013-10-26 08:40:00,
2013-10-26 04:46:00,27.7,26.2,30.27,WSW,254,0.0,0.0,94,0.00,,,0.00,meteobridge,2013-10-26 08:46:00,
2013-10-26 04:51:00,27.7,26.2,30.27,WSW,254,0.0,0.0,94,0.00,,,0.00,meteobridge,2013-10-26 08:51:00,
2013-10-26 04:56:00,27.5,26.1,30.27,WSW,254,0.0,0.0,94,0.00,,,0.00,meteobridge,2013-10-26 08:56:00,
2013-10-26 05:01:00,27.5,26.1,30.27,WSW,254,0.0,0.0,94,0.00,,,0.00,meteobridge,2013-10-26 09:01:00,
2013-10-26 05:07:00,27.5,26.1,30.27,WSW,254,0.0,0.0,94,0.00,,,0.00,meteobridge,2013-10-26 09:07:00,
2013-10-26 05:12:00,27.7,26.2,30.27,WSW,254,0.0,0.0,94,0.00,,,0.00,meteobridge,2013-10-26 09:12:00,
2013-10-26 05:17:00,27.9,26.4,30.26,WSW,254,0.0,0.0,94,0.00,,,0.00,meteobridge,2013-10-26 09:17:00,
2013-10-26 05:22:00,27.9,26.6,30.26,WSW,254,0.0,0.0,95,0.00,,,0.00,meteobridge,2013-10-26 09:22:00,
2013-10-26 05:27:00,27.9,26.4,30.26,WSW,254,0.0,0.0,94,0.00,,,0.00,meteobridge,2013-10-26 09:27:00,
2013-10-26 05:32:00,27.9,26.4,30.26,WSW,254,0.0,0.0,94,0.00,,,0.00,meteobridge,2013-10-26 09:32:00,
2013-10-26 05:37:00,28.0,26.8,30.26,WSW,254,0.0,0.0,95,0.00,,,0.00,meteobridge,2013-10-26 09:37:00,
2013-10-26 05:42:00,28.2,27.0,30.26,WSW,254,0.0,0.0,95,0.00,,,0.00,meteobridge,2013-10-26 09:42:00,
2013-10-26 05:48:00,28.4,27.1,30.26,WSW,254,0.0,0.0,95,0.00,,,0.00,meteobridge,2013-10-26 09:48:00,
2013-10-26 05:53:00,28.6,27.3,30.26,WSW,254,0.0,0.0,95,0.00,,,0.00,meteobridge,2013-10-26 09:53:00,
2013-10-26 05:58:00,28.8,27.5,30.26,WSW,254,0.0,0.0,95,0.00,,,0.00,meteobridge,2013-10-26 09:58:00,
2013-10-26 06:03:00,28.8,27.5,30.26,WSW,254,0.0,0.0,95,0.00,,,0.00,meteobridge,2013-10-26 10:03:00,
2013-10-26 06:08:00,28.6,27.1,30.26,WSW,254,0.0,0.0,94,0.00,,,0.00,meteobridge,2013-10-26 10:08:00,
2013-10-26 06:14:00,28.4,27.1,30.26,WSW,254,0.0,0.0,95,0.00,,,0.00,meteobridge,2013-10-26 10:14:00,
2013-10-26 06:19:00,28.8,27.5,30.27,WSW,254,0.0,0.0,95,0.00,,,0.00,meteobridge,2013-10-26 10:19:00,
2013-10-26 06:24:00,28.8,27.5,30.27,WSW,254,0.0,0.0,95,0.00,,,0.00,meteobridge,2013-10-26 10:24:00,
2013-10-26 06:29:00,28.8,27.5,30.26,WSW,254,0.0,0.0,95,0.00,,,0.00,meteobridge,2013-10-26 10:29:00,
2013-10-26 06:34:00,28.9,27.7,30.26,WSW,254,0.0,0.0,95,0.00,,,0.00,meteobridge,2013-10-26 10:34:00,
2013-10-26 06:39:00,28.8,27.3,30.26,WSW,254,0.0,0.0,94,0.00,,,0.00,meteobridge,2013-10-26 10:39:00,
2013-10-26 06:45:00,28.4,27.0,30.26,WSW,254,0.0,0.0,94,0.00,,,0.00,meteobridge,2013-10-26 10:45:00,
2013-10-26 06:50:00,28.4,27.1,30.26,WSW,254,0.0,0.0,95,0.00,,,0.00,meteobridge,2013-10-26 10:50:00,
2013-10-26 06:55:00,28.6,27.3,30.26,WSW,254,0.0,0.0,95,0.00,,,0.00,meteobridge,2013-10-26 10:55:00,
2013-10-26 07:01:00,28.8,27.5,30.26,WSW,254,0.0,0.0,95,0.00,,,0.00,meteobridge,2013-10-26 11:01:00,
2013-10-26 07:06:00,28.8,27.5,30.26,WSW,254,0.0,0.0,95,0.00,,,0.00,meteobridge,2013-10-26 11:06:00,
2013-10-26 07:11:00,28.8,27.5,30.26,WSW,254,0.0,0.0,95,0.00,,,0.00,meteobridge,2013-10-26 11:11:00,
2013-10-26 07:16:00,28.8,27.5,30.26,WSW,254,0.0,0.0,95,0.00,,,0.00,meteobridge,2013-10-26 11:16:00,
2013-10-26 07:21:00,28.6,27.3,30.26,WSW,254,0.0,0.0,95,0.00,,,0.00,meteobridge,2013-10-26 11:21:00,
2013-10-26 07:26:00,28.8,27.5,30.26,WSW,254,0.0,0.0,95,0.00,,,0.00,meteobridge,2013-10-26 11:26:00,
2013-10-26 07:31:00,28.8,27.5,30.26,WSW,254,0.0,0.0,95,0.00,,,0.00,meteobridge,2013-10-26 11:31:00,
2013-10-26 07:36:00,28.8,27.5,30.26,WSW,254,0.0,0.9,95,0.00,,,0.00,meteobridge,2013-10-26 11:36:00,
2013-10-26 07:41:00,29.1,27.9,30.26,WSW,250,0.0,0.9,95,0.00,,,0.00,meteobridge,2013-10-26 11:41:00,
2013-10-26 07:46:00,29.1,27.7,30.25,WSW,250,0.0,0.0,94,0.01,,,0.01,meteobridge,2013-10-26 11:46:00,
2013-10-26 07:51:00,29.1,27.7,30.25,WSW,250,0.0,0.0,94,0.01,,,0.01,meteobridge,2013-10-26 11:51:00,
2013-10-26 07:56:00,29.1,27.7,30.25,WSW,250,0.0,0.0,94,0.01,,,0.01,meteobridge,2013-10-26 11:56:00,
2013-10-26 08:02:00,29.3,27.9,30.25,WSW,251,0.0,0.0,94,0.01,,,0.01,meteobridge,2013-10-26 12:02:00,
2013-10-26 08:07:00,29.3,27.9,30.25,WSW,250,0.0,0.0,94,0.01,,,0.01,meteobridge,2013-10-26 12:07:00,
2013-10-26 08:12:00,29.5,28.0,30.25,WSW,250,0.0,0.0,94,0.01,,,0.01,meteobridge,2013-10-26 12:12:00,
2013-10-26 08:17:00,29.5,28.0,30.25,WSW,250,0.0,0.0,94,0.01,,,0.01,meteobridge,2013-10-26 12:17:00,
2013-10-26 08:22:00,29.5,28.0,30.25,WSW,250,0.0,0.0,94,0.01,,,0.01,meteobridge,2013-10-26 12:22:00,
2013-10-26 08:27:00,29.8,28.4,30.25,WSW,250,0.0,2.0,94,0.01,,,0.01,meteobridge,2013-10-26 12:27:00,
2013-10-26 08:33:00,30.4,28.9,30.25,WSW,250,0.9,2.9,94,0.01,,,0.01,meteobridge,2013-10-26 12:33:00,
2013-10-26 08:38:00,30.7,28.9,30.25,WSW,250,0.0,0.0,93,0.01,,,0.01,meteobridge,2013-10-26 12:38:00,
2013-10-26 08:43:00,31.3,29.5,30.25,WSW,250,0.0,0.9,93,0.00,,,0.01,meteobridge,2013-10-26 12:43:00,
2013-10-26 08:48:00,31.6,29.7,30.25,WSW,248,0.0,2.0,92,0.00,,,0.01,meteobridge,2013-10-26 12:48:00,
2013-10-26 08:53:00,32.4,30.0,30.25,SSW,196,2.0,2.9,91,0.00,,,0.01,meteobridge,2013-10-26 12:53:00,
2013-10-26 08:59:00,32.9,30.0,30.25,SSW,208,0.0,4.9,89,0.00,,,0.01,meteobridge,2013-10-26 12:59:00,
2013-10-26 09:04:00,33.4,30.2,30.26,SW,227,0.9,2.9,88,0.00,,,0.01,meteobridge,2013-10-26 13:04:00,
2013-10-26 09:09:00,34.0,30.2,30.26,South,172,2.0,4.9,86,0.00,,,0.01,meteobridge,2013-10-26 13:09:00,
2013-10-26 09:14:00,34.5,30.2,30.26,WNW,289,0.9,2.0,84,0.00,,,0.01,meteobridge,2013-10-26 13:14:00,
2013-10-26 09:19:00,35.1,30.2,30.25,SW,230,0.0,4.9,82,0.00,,,0.01,meteobridge,2013-10-26 13:19:00,
2013-10-26 09:24:00,35.4,29.8,30.25,South,176,0.0,2.9,80,0.00,,,0.01,meteobridge,2013-10-26 13:24:00,
2013-10-26 09:29:00,36.0,29.8,30.25,SSW,196,4.9,6.9,78,0.00,,,0.01,meteobridge,2013-10-26 13:29:00,
2013-10-26 09:34:00,36.5,29.7,30.25,SSW,198,6.0,6.9,76,0.00,,,0.01,meteobridge,2013-10-26 13:34:00,
2013-10-26 09:39:00,36.9,29.7,30.25,SSW,209,2.0,6.9,75,0.00,,,0.01,meteobridge,2013-10-26 13:39:00,
2013-10-26 09:45:00,37.2,29.3,30.24,SW,215,0.0,4.9,73,0.00,,,0.01,meteobridge,2013-10-26 13:45:00,
2013-10-26 09:50:00,37.9,29.7,30.24,WSW,254,0.9,10.1,72,0.00,,,0.01,meteobridge,2013-10-26 13:50:00,
2013-10-26 09:55:00,37.9,29.1,30.24,SSE,152,6.9,8.1,70,0.00,,,0.01,meteobridge,2013-10-26 13:55:00,
2013-10-26 10:00:00,38.5,29.1,30.23,SW,224,2.9,6.9,69,0.00,,,0.01,meteobridge,2013-10-26 14:00:00,
2013-10-26 10:05:00,38.8,29.1,30.23,South,175,6.0,8.9,68,0.00,,,0.01,meteobridge,2013-10-26 14:05:00,
2013-10-26 10:10:00,39.2,29.5,30.23,SSW,193,0.9,10.1,68,0.00,,,0.01,meteobridge,2013-10-26 14:10:00,
2013-10-26 10:15:00,39.6,29.5,30.22,South,181,4.9,8.1,67,0.00,,,0.01,meteobridge,2013-10-26 14:15:00,
2013-10-26 10:20:00,40.1,30.0,30.22,WSW,254,4.0,8.1,67,0.00,,,0.01,meteobridge,2013-10-26 14:20:00,
2013-10-26 10:25:00,40.3,29.8,30.22,West,260,0.9,2.0,66,0.00,,,0.01,meteobridge,2013-10-26 14:25:00,
2013-10-26 10:30:00,41.2,30.4,30.21,SSE,160,0.0,8.1,65,0.00,,,0.01,meteobridge,2013-10-26 14:30:00,
2013-10-26 10:35:00,41.7,30.4,30.21,SW,215,2.9,4.9,64,0.00,,,0.01,meteobridge,2013-10-26 14:35:00,
2013-10-26 10:40:00,41.9,29.8,30.21,SSW,202,6.0,8.1,62,0.00,,,0.01,meteobridge,2013-10-26 14:40:00,
2013-10-26 10:45:00,42.4,30.7,30.19,SSE,161,2.0,2.0,63,0.00,,,0.01,meteobridge,2013-10-26 14:45:00,
2013-10-26 10:50:00,42.8,30.2,30.19,SW,232,4.0,6.9,61,0.00,,,0.01,meteobridge,2013-10-26 14:50:00,
2013-10-26 10:55:00,43.5,31.3,30.19,South,186,14.1,14.1,62,0.00,,,0.01,meteobridge,2013-10-26 14:55:00,
2013-10-26 11:00:00,44.1,31.5,30.18,WSW,254,2.0,4.9,61,0.00,,,0.01,meteobridge,2013-10-26 15:00:00,
2013-10-26 11:05:00,44.6,31.1,30.18,SW,223,6.9,17.0,59,0.00,,,0.01,meteobridge,2013-10-26 15:05:00,
2013-10-26 11:10:00,45.0,30.6,30.18,SSE,155,6.0,6.9,57,0.00,,,0.01,meteobridge,2013-10-26 15:10:00,
2013-10-26 11:15:00,45.5,30.7,30.17,SSE,161,2.9,11.0,56,0.00,,,0.01,meteobridge,2013-10-26 15:15:00,
2013-10-26 11:20:00,45.7,30.0,30.17,WNW,292,4.9,12.1,54,0.00,,,0.01,meteobridge,2013-10-26 15:20:00,
2013-10-26 11:25:00,45.9,30.2,30.17,West,270,4.9,8.1,54,0.00,,,0.01,meteobridge,2013-10-26 15:25:00,
2013-10-26 11:30:00,46.6,30.4,30.17,SW,224,2.0,11.0,53,0.00,,,0.01,meteobridge,2013-10-26 15:30:00,
2013-10-26 11:35:00,46.6,30.4,30.17,South,186,0.9,8.1,53,0.00,,,0.01,meteobridge,2013-10-26 15:35:00,
2013-10-26 11:40:00,46.8,29.7,30.17,South,176,2.0,14.1,51,0.00,,,0.01,meteobridge,2013-10-26 15:40:00,
2013-10-26 11:45:00,46.9,29.8,30.16,South,178,0.9,11.0,51,0.00,,,0.01,meteobridge,2013-10-26 15:45:00,
2013-10-26 11:50:00,47.7,30.0,30.16,South,175,2.0,6.9,50,0.00,,,0.01,meteobridge,2013-10-26 15:50:00,
2013-10-26 11:55:00,47.8,29.7,30.16,SW,233,2.0,11.0,49,0.00,,,0.01,meteobridge,2013-10-26 15:55:00,
2013-10-26 12:00:00,47.8,29.1,30.15,South,191,6.9,14.1,48,0.00,,,0.01,meteobridge,2013-10-26 16:00:00,
2013-10-26 12:05:00,47.7,28.9,30.15,South,179,4.9,10.1,48,0.00,,,0.01,meteobridge,2013-10-26 16:05:00,
2013-10-26 12:10:00,48.0,28.8,30.15,South,175,2.0,11.0,47,0.00,,,0.01,meteobridge,2013-10-26 16:10:00,
2013-10-26 12:15:00,48.6,29.3,30.14,South,188,0.0,11.0,47,0.00,,,0.01,meteobridge,2013-10-26 16:15:00,
2013-10-26 12:20:00,48.9,29.1,30.14,South,182,4.0,6.9,46,0.00,,,0.01,meteobridge,2013-10-26 16:20:00,
2013-10-26 12:25:00,49.6,28.0,30.14,SW,226,4.9,10.1,43,0.00,,,0.01,meteobridge,2013-10-26 16:25:00,
2013-10-26 12:30:00,49.8,28.2,30.14,South,188,8.1,12.1,43,0.00,,,0.01,meteobridge,2013-10-26 16:30:00,
2013-10-26 12:35:00,49.5,26.8,30.14,South,191,6.9,12.1,41,0.00,,,0.01,meteobridge,2013-10-26 16:35:00,
2013-10-26 12:40:00,50.2,27.3,30.14,South,182,6.9,8.1,41,0.00,,,0.01,meteobridge,2013-10-26 16:40:00,
2013-10-26 12:45:00,50.7,27.3,30.13,WSW,247,6.0,10.1,40,0.00,,,0.01,meteobridge,2013-10-26 16:45:00,
2013-10-26 12:50:00,51.1,27.7,30.13,West,280,4.9,6.9,40,0.00,,,0.01,meteobridge,2013-10-26 16:50:00,
2013-10-26 13:00:00,52.5,27.7,30.12,SW,220,6.9,11.0,38,0.00,,,0.01,meteobridge,2013-10-26 17:00:00,
2013-10-26 13:05:00,51.6,26.2,30.12,South,185,4.9,14.1,37,0.00,,,0.01,meteobridge,2013-10-26 17:05:00,
2013-10-26 13:10:00,52.0,27.9,30.12,South,184,6.9,10.1,39,0.00,,,0.01,meteobridge,2013-10-26 17:10:00,
2013-10-26 13:15:00,52.2,26.6,30.12,South,184,8.1,14.1,37,0.00,,,0.01,meteobridge,2013-10-26 17:15:00,
2013-10-26 13:20:00,51.6,26.8,30.12,South,189,6.0,10.1,38,0.00,,,0.01,meteobridge,2013-10-26 17:20:00,
2013-10-26 13:25:00,51.1,26.4,30.12,WNW,288,8.1,11.0,38,0.00,,,0.01,meteobridge,2013-10-26 17:25:00,
2013-10-26 13:30:00,50.5,26.4,30.10,West,277,2.9,11.0,39,0.00,,,0.01,meteobridge,2013-10-26 17:30:00,
2013-10-26 13:35:00,50.5,25.9,30.10,West,271,2.0,8.9,38,0.00,,,0.01,meteobridge,2013-10-26 17:35:00,
2013-10-26 13:40:00,50.2,25.5,30.10,SW,215,0.0,10.1,38,0.00,,,0.01,meteobridge,2013-10-26 17:40:00,
2013-10-26 13:45:00,50.4,27.0,30.09,WSW,239,4.9,11.0,40,0.00,,,0.01,meteobridge,2013-10-26 17:45:00,
2013-10-26 13:50:00,50.7,27.3,30.09,SW,229,6.0,6.0,40,0.00,,,0.01,meteobridge,2013-10-26 17:50:00,
2013-10-26 13:55:00,50.7,26.1,30.09,South,185,2.9,8.1,38,0.00,,,0.01,meteobridge,2013-10-26 17:55:00,
2013-10-26 14:00:00,50.7,26.1,30.08,West,274,4.9,6.9,38,0.00,,,0.01,meteobridge,2013-10-26 18:00:00,
2013-10-26 14:05:00,50.7,26.1,30.08,SSW,195,0.9,8.1,38,0.00,,,0.01,meteobridge,2013-10-26 18:05:00,
2013-10-26 14:10:00,51.1,26.4,30.08,SSE,160,6.0,8.9,38,0.00,,,0.01,meteobridge,2013-10-26 18:10:00,
2013-10-26 14:15:00,51.1,25.0,30.07,WSW,258,2.0,11.0,36,0.00,,,0.01,meteobridge,2013-10-26 18:15:00,
2013-10-26 14:20:00,51.1,26.4,30.07,SW,229,6.0,6.0,38,0.00,,,0.01,meteobridge,2013-10-26 18:20:00,
2013-10-26 14:25:00,51.1,25.0,30.07,SSW,199,0.9,8.1,36,0.00,,,0.01,meteobridge,2013-10-26 18:25:00,
2013-10-26 14:30:00,51.3,25.9,30.06,SSW,213,4.0,10.1,37,0.00,,,0.01,meteobridge,2013-10-26 18:30:00,
2013-10-26 14:36:00,51.3,26.6,30.06,WSW,254,0.9,8.1,38,0.00,,,0.01,meteobridge,2013-10-26 18:36:00,
2013-10-26 14:46:00,51.4,25.3,30.06,South,185,0.9,13.0,36,0.00,,,0.01,meteobridge,2013-10-26 18:46:00,
2013-10-26 14:51:00,51.4,26.6,30.06,South,191,6.9,13.0,38,0.00,,,0.01,meteobridge,2013-10-26 18:51:00,
2013-10-26 14:56:00,51.4,26.6,30.06,WSW,237,4.9,6.0,38,0.00,,,0.01,meteobridge,2013-10-26 18:56:00,
2013-10-26 15:01:00,51.4,26.6,30.05,South,179,0.0,6.9,38,0.00,,,0.01,meteobridge,2013-10-26 19:01:00,
2013-10-26 15:06:00,51.4,26.6,30.05,South,191,2.0,14.1,38,0.00,,,0.01,meteobridge,2013-10-26 19:06:00,
2013-10-26 15:11:00,51.1,25.7,30.05,South,188,6.9,12.1,37,0.00,,,0.01,meteobridge,2013-10-26 19:11:00,
2013-10-26 15:16:00,50.7,26.1,30.06,SSW,208,4.9,13.0,38,0.00,,,0.01,meteobridge,2013-10-26 19:16:00,
2013-10-26 15:21:00,50.7,26.1,30.06,South,171,8.1,13.0,38,0.00,,,0.01,meteobridge,2013-10-26 19:21:00,
2013-10-26 15:26:00,50.7,26.6,30.06,SW,232,0.9,6.0,39,0.00,,,0.01,meteobridge,2013-10-26 19:26:00,
2013-10-26 15:31:00,50.7,26.6,30.06,WSW,243,2.0,4.9,39,0.00,,,0.01,meteobridge,2013-10-26 19:31:00,
2013-10-26 15:36:00,50.7,26.6,30.06,WSW,247,0.9,8.1,39,0.00,,,0.01,meteobridge,2013-10-26 19:36:00,
2013-10-26 15:41:00,50.7,27.3,30.06,South,191,6.0,6.9,40,0.00,,,0.01,meteobridge,2013-10-26 19:41:00,
2013-10-26 15:46:00,50.5,27.1,30.05,South,174,2.0,4.9,40,0.00,,,0.01,meteobridge,2013-10-26 19:46:00,
2013-10-26 15:51:00,50.5,27.1,30.05,SW,230,2.9,4.9,40,0.00,,,0.01,meteobridge,2013-10-26 19:51:00,
2013-10-26 15:56:00,50.4,27.0,30.05,SSW,198,2.0,4.0,40,0.00,,,0.01,meteobridge,2013-10-26 19:56:00,
2013-10-26 16:02:00,50.5,27.7,30.04,SW,226,0.9,0.9,41,0.00,,,0.01,meteobridge,2013-10-26 20:02:00,
2013-10-26 16:07:00,50.7,27.3,30.04,SW,216,2.9,2.9,40,0.00,,,0.01,meteobridge,2013-10-26 20:07:00,
2013-10-26 16:12:00,50.7,26.6,30.04,SW,217,0.9,11.0,39,0.00,,,0.01,meteobridge,2013-10-26 20:12:00,
2013-10-26 16:17:00,50.7,27.3,30.04,South,179,2.0,2.9,40,0.00,,,0.01,meteobridge,2013-10-26 20:17:00,
2013-10-26 16:22:00,50.7,27.9,30.04,South,186,4.9,4.9,41,0.00,,,0.01,meteobridge,2013-10-26 20:22:00,
2013-10-26 16:27:00,50.7,27.3,30.04,SSE,147,0.9,2.9,40,0.00,,,0.01,meteobridge,2013-10-26 20:27:00,
2013-10-26 16:32:00,50.7,27.9,30.03,SSE,151,0.0,4.9,41,0.00,,,0.01,meteobridge,2013-10-26 20:32:00,
2013-10-26 16:37:00,50.7,27.3,30.03,South,182,4.9,8.1,40,0.00,,,0.01,meteobridge,2013-10-26 20:37:00,
2013-10-26 16:42:00,50.7,27.3,30.03,SE,143,2.0,6.0,40,0.00,,,0.01,meteobridge,2013-10-26 20:42:00,
2013-10-26 16:47:00,50.7,27.9,30.02,SW,220,0.0,2.0,41,0.00,,,0.01,meteobridge,2013-10-26 20:47:00,
2013-10-26 16:52:00,51.1,27.7,30.02,SSW,213,4.9,8.1,40,0.00,,,0.01,meteobridge,2013-10-26 20:52:00,
2013-10-26 16:57:00,51.1,27.0,30.02,South,188,2.0,10.1,39,0.00,,,0.01,meteobridge,2013-10-26 20:57:00,
2013-10-26 17:02:00,51.1,27.0,30.02,WSW,237,2.9,10.1,39,0.00,,,0.01,meteobridge,2013-10-26 21:02:00,
2013-10-26 17:07:00,51.1,27.0,30.02,South,175,6.0,12.1,39,0.00,,,0.01,meteobridge,2013-10-26 21:07:00,
2013-10-26 17:12:00,51.3,26.6,30.02,WSW,246,0.9,6.9,38,0.00,,,0.01,meteobridge,2013-10-26 21:12:00,
2013-10-26 17:17:00,51.3,26.6,30.00,SSE,147,0.9,6.0,38,0.00,,,0.01,meteobridge,2013-10-26 21:17:00,
2013-10-26 17:22:00,51.4,26.6,30.00,WSW,244,2.9,11.0,38,0.00,,,0.01,meteobridge,2013-10-26 21:22:00,
2013-10-26 17:27:00,51.4,26.1,30.00,SW,230,2.9,6.0,37,0.00,,,0.01,meteobridge,2013-10-26 21:27:00,
2013-10-26 17:32:00,51.3,26.6,29.99,ESE,116,2.0,6.9,38,0.00,,,0.01,meteobridge,2013-10-26 21:32:00,
2013-10-26 17:37:00,51.3,25.9,29.99,SSE,161,4.9,6.0,37,0.00,,,0.01,meteobridge,2013-10-26 21:37:00,
2013-10-26 17:42:00,51.3,26.6,29.99,SSE,165,4.9,6.9,38,0.00,,,0.01,meteobridge,2013-10-26 21:42:00,
2013-10-26 17:48:00,51.4,26.6,29.99,SSE,150,0.9,0.9,38,0.00,,,0.01,meteobridge,2013-10-26 21:48:00,
2013-10-26 17:53:00,51.4,26.1,29.99,SSW,198,4.0,6.9,37,0.00,,,0.01,meteobridge,2013-10-26 21:53:00,
2013-10-26 17:58:00,51.3,26.6,29.99,SSW,203,4.0,6.0,38,0.00,,,0.01,meteobridge,2013-10-26 21:58:00,
2013-10-26 18:03:00,51.3,27.1,29.98,SSE,151,0.0,6.0,39,0.00,,,0.01,meteobridge,2013-10-26 22:03:00,
2013-10-26 18:08:00,51.3,26.6,29.98,SSE,164,2.0,6.0,38,0.00,,,0.01,meteobridge,2013-10-26 22:08:00,
2013-10-26 18:13:00,51.3,26.6,29.98,South,172,0.9,4.9,38,0.00,,,0.01,meteobridge,2013-10-26 22:13:00,
2013-10-26 18:18:00,51.3,27.1,29.99,SSE,150,0.9,2.9,39,0.00,,,0.01,meteobridge,2013-10-26 22:18:00,
2013-10-26 18:23:00,51.3,27.1,29.99,SSE,150,0.9,0.9,39,0.00,,,0.01,meteobridge,2013-10-26 22:23:00,
2013-10-26 18:28:00,51.1,26.4,29.99,SW,217,0.9,6.0,38,0.00,,,0.01,meteobridge,2013-10-26 22:28:00,
2013-10-26 18:33:00,51.1,26.4,29.99,SSW,198,0.0,2.9,38,0.00,,,0.01,meteobridge,2013-10-26 22:33:00,
2013-10-26 18:38:00,51.1,26.4,29.99,SSW,200,0.9,2.9,38,0.00,,,0.01,meteobridge,2013-10-26 22:38:00,
2013-10-26 18:43:00,51.1,26.4,29.99,SW,232,0.0,4.9,38,0.00,,,0.01,meteobridge,2013-10-26 22:43:00,
2013-10-26 18:48:00,51.1,26.4,29.99,SSW,208,2.0,8.9,38,0.00,,,0.01,meteobridge,2013-10-26 22:48:00,
2013-10-26 18:53:00,51.1,26.4,29.99,West,267,0.0,4.9,38,0.00,,,0.01,meteobridge,2013-10-26 22:53:00,
2013-10-26 18:58:00,50.7,27.3,29.99,WSW,239,2.9,2.9,40,0.00,,,0.01,meteobridge,2013-10-26 22:58:00,
2013-10-26 19:03:00,50.4,27.0,29.99,WSW,247,0.0,6.0,40,0.00,,,0.01,meteobridge,2013-10-26 23:03:00,
2013-10-26 19:08:00,50.2,26.8,29.99,SW,230,2.0,2.9,40,0.00,,,0.01,meteobridge,2013-10-26 23:08:00,
2013-10-26 19:14:00,50.2,26.8,29.99,SW,230,0.0,2.0,40,0.00,,,0.01,meteobridge,2013-10-26 23:14:00,
2013-10-26 19:19:00,50.2,27.3,30.00,SW,230,0.0,0.0,41,0.00,,,0.01,meteobridge,2013-10-26 23:19:00,
2013-10-26 19:24:00,49.8,27.7,30.00,SW,230,0.0,0.0,42,0.00,,,0.01,meteobridge,2013-10-26 23:24:00,
2013-10-26 19:29:00,49.8,27.7,30.00,SW,230,0.0,0.9,42,0.00,,,0.01,meteobridge,2013-10-26 23:29:00,
2013-10-26 19:34:00,49.8,27.7,30.01,SW,230,0.0,0.0,42,0.00,,,0.01,meteobridge,2013-10-26 23:34:00,
2013-10-26 19:39:00,49.5,27.9,30.01,SW,230,0.0,0.0,43,0.00,,,0.01,meteobridge,2013-10-26 23:39:00,
2013-10-26 19:44:00,49.3,28.2,30.03,SW,230,0.9,0.9,44,0.00,,,0.01,meteobridge,2013-10-26 23:44:00,
2013-10-26 19:49:00,49.3,28.2,30.03,SW,230,0.0,2.9,44,0.00,,,0.01,meteobridge,2013-10-26 23:49:00,
2013-10-26 19:55:00,49.1,28.8,30.03,SW,230,0.0,0.0,45,0.00,,,0.01,meteobridge,2013-10-26 23:55:00,
2013-10-26 20:00:00,48.9,30.0,30.03,SW,230,0.0,0.0,48,0.00,,,0.01,meteobridge,2013-10-27 00:00:00,
2013-10-26 20:05:00,48.6,30.2,30.03,SW,230,0.0,0.0,49,0.00,,,0.01,meteobridge,2013-10-27 00:05:00,
2013-10-26 20:10:00,48.4,31.1,30.03,SW,230,0.0,0.0,51,0.00,,,0.01,meteobridge,2013-10-27 00:10:00,
2013-10-26 20:15:00,48.0,31.3,30.04,SW,230,0.0,0.0,52,0.00,,,0.01,meteobridge,2013-10-27 00:15:00,
2013-10-26 20:21:00,47.8,31.5,30.04,SW,230,0.0,0.0,53,0.00,,,0.01,meteobridge,2013-10-27 00:21:00,
2013-10-26 20:26:00,47.7,32.4,30.04,SW,230,0.0,0.0,55,0.00,,,0.01,meteobridge,2013-10-27 00:26:00,
2013-10-26 20:31:00,47.5,32.5,30.05,SW,230,0.0,0.0,56,0.00,,,0.01,meteobridge,2013-10-27 00:31:00,
2013-10-26 20:36:00,47.1,32.7,30.05,SW,230,0.0,0.0,57,0.00,,,0.01,meteobridge,2013-10-27 00:36:00,
2013-10-26 20:41:00,46.9,32.9,30.05,SW,230,0.0,0.0,58,0.00,,,0.01,meteobridge,2013-10-27 00:41:00,
2013-10-26 20:47:00,46.8,32.7,30.05,SW,230,0.0,0.0,58,0.00,,,0.01,meteobridge,2013-10-27 00:47:00,
2013-10-26 20:52:00,46.8,32.7,30.05,SW,230,0.0,0.0,58,0.00,,,0.01,meteobridge,2013-10-27 00:52:00,
2013-10-26 20:57:00,46.6,32.5,30.05,SW,230,0.0,0.0,58,0.00,,,0.01,meteobridge,2013-10-27 00:57:00,
2013-10-26 21:02:00,46.6,32.5,30.05,SW,230,0.0,0.0,58,0.00,,,0.01,meteobridge,2013-10-27 01:02:00,
2013-10-26 21:07:00,46.6,32.2,30.05,SW,230,0.0,0.0,57,0.00,,,0.01,meteobridge,2013-10-27 01:07:00,
2013-10-26 21:12:00,46.8,31.8,30.05,SW,230,0.0,0.9,56,0.00,,,0.01,meteobridge,2013-10-27 01:12:00,
2013-10-26 21:18:00,46.8,31.8,30.05,SW,230,0.0,0.0,56,0.00,,,0.01,meteobridge,2013-10-27 01:18:00,
2013-10-26 21:23:00,46.8,32.7,30.05,SW,230,0.0,0.0,58,0.00,,,0.01,meteobridge,2013-10-27 01:23:00,
2013-10-26 21:28:00,46.4,32.0,30.05,SW,230,0.0,0.9,57,0.00,,,0.01,meteobridge,2013-10-27 01:28:00,
2013-10-26 21:33:00,46.2,31.8,30.05,SW,230,0.0,2.0,57,0.00,,,0.01,meteobridge,2013-10-27 01:33:00,
2013-10-26 21:38:00,46.2,31.5,30.05,SW,232,0.0,2.0,56,0.00,,,0.01,meteobridge,2013-10-27 01:38:00,
2013-10-26 21:44:00,46.6,30.4,30.05,WSW,246,0.0,0.0,53,0.00,,,0.01,meteobridge,2013-10-27 01:44:00,
2013-10-26 21:49:00,46.8,30.6,30.05,West,274,2.9,2.9,53,0.00,,,0.01,meteobridge,2013-10-27 01:49:00,
2013-10-26 21:54:00,46.8,30.0,30.05,West,274,0.0,0.0,52,0.00,,,0.01,meteobridge,2013-10-27 01:54:00,
2013-10-26 21:59:00,46.6,30.7,30.05,West,274,0.0,0.0,54,0.00,,,0.01,meteobridge,2013-10-27 01:59:00,
2013-10-26 22:04:00,46.2,30.9,30.05,West,274,0.0,0.9,55,0.00,,,0.01,meteobridge,2013-10-27 02:04:00,
2013-10-26 22:09:00,45.9,30.6,30.05,West,274,0.0,0.0,55,0.00,,,0.01,meteobridge,2013-10-27 02:09:00,
2013-10-26 22:14:00,45.9,30.6,30.06,West,274,0.0,0.0,55,0.00,,,0.01,meteobridge,2013-10-27 02:14:00,
2013-10-26 22:19:00,45.5,31.6,30.06,West,274,0.0,0.0,58,0.00,,,0.01,meteobridge,2013-10-27 02:19:00,
2013-10-26 22:25:00,45.0,32.4,30.06,West,274,0.0,0.0,61,0.00,,,0.01,meteobridge,2013-10-27 02:25:00,
2013-10-26 22:30:00,44.2,32.4,30.06,West,274,0.0,0.0,63,0.00,,,0.01,meteobridge,2013-10-27 02:30:00,
2013-10-26 22:35:00,43.5,32.5,30.06,West,274,0.0,0.0,65,0.00,,,0.01,meteobridge,2013-10-27 02:35:00,
2013-10-26 22:40:00,43.2,32.2,30.06,West,274,0.0,0.0,65,0.00,,,0.01,meteobridge,2013-10-27 02:40:00,
2013-10-26 22:46:00,42.8,31.8,30.07,West,274,0.0,0.0,65,0.00,,,0.01,meteobridge,2013-10-27 02:46:00,
2013-10-26 22:51:00,42.8,31.8,30.07,West,274,0.0,0.0,65,0.00,,,0.01,meteobridge,2013-10-27 02:51:00,
2013-10-26 22:56:00,42.8,31.8,30.07,West,274,0.0,0.0,65,0.00,,,0.01,meteobridge,2013-10-27 02:56:00,
2013-10-26 23:01:00,42.8,31.8,30.07,West,274,0.0,0.0,65,0.00,,,0.01,meteobridge,2013-10-27 03:01:00,
2013-10-26 23:06:00,42.8,31.8,30.07,West,274,0.0,0.0,65,0.00,,,0.01,meteobridge,2013-10-27 03:06:00,
2013-10-26 23:11:00,43.2,31.8,30.07,West,274,0.0,0.0,64,0.00,,,0.01,meteobridge,2013-10-27 03:11:00,
2013-10-26 23:16:00,43.3,32.4,30.07,West,274,0.0,0.0,65,0.00,,,0.01,meteobridge,2013-10-27 03:16:00,
2013-10-26 23:21:00,43.5,31.8,30.07,West,274,0.0,0.0,63,0.00,,,0.01,meteobridge,2013-10-27 03:21:00,
2013-10-26 23:27:00,43.9,31.6,30.07,West,274,0.0,0.9,62,0.00,,,0.01,meteobridge,2013-10-27 03:27:00,
2013-10-26 23:32:00,44.2,31.6,30.06,West,274,0.0,2.0,61,0.00,,,0.01,meteobridge,2013-10-27 03:32:00,
2013-10-26 23:37:00,44.8,32.2,30.06,West,274,0.9,0.9,61,0.00,,,0.01,meteobridge,2013-10-27 03:37:00,
2013-10-26 23:42:00,45.3,31.8,30.06,WSW,256,0.0,0.9,59,0.00,,,0.01,meteobridge,2013-10-27 03:42:00,
2013-10-26 23:47:00,45.9,32.0,30.06,WSW,254,2.0,2.0,58,0.00,,,0.01,meteobridge,2013-10-27 03:47:00,
2013-10-26 23:52:00,46.0,32.0,30.06,WSW,254,0.9,0.9,58,0.00,,,0.01,meteobridge,2013-10-27 03:52:00,
2013-10-26 23:57:00,46.6,32.2,30.06,WSW,240,2.9,4.9,57,0.00,,,0.01,meteobridge,2013-10-27 03:57:00,